sensor_id;sensor_type;location;lat;lon;timestamp;pressure;altitude;pressure_sealevel;temperature;humidity
70488;BME280;57976;48.174;16.370;2023-11-21T00:01:45;98772.64;;;11.10;81.61
70488;BME280;57976;48.174;16.370;2023-11-21T00:03:50;98773.16;;;11.07;81.44
70488;BME280;57976;48.174;16.370;2023-11-21T00:05:55;98772.23;;;11.05;81.77
70488;BME280;57976;48.174;16.370;2023-11-21T00:08:00;98769.81;;;11.03;81.80
70488;BME280;57976;48.174;16.370;2023-11-21T00:10:05;98765.53;;;11.01;81.99
70488;BME280;57976;48.174;16.370;2023-11-21T00:12:10;98760.25;;;11.00;82.04
70488;BME280;57976;48.174;16.370;2023-11-21T00:14:15;98760.60;;;10.97;82.01
70488;BME280;57976;48.174;16.370;2023-11-21T00:16:20;98757.17;;;10.97;82.11
70488;BME280;57976;48.174;16.370;2023-11-21T00:18:24;98752.09;;;10.96;82.19
70488;BME280;57976;48.174;16.370;2023-11-21T00:20:29;98747.58;;;10.95;82.30
70488;BME280;57976;48.174;16.370;2023-11-21T00:22:34;98745.29;;;10.91;82.39
70488;BME280;57976;48.174;16.370;2023-11-21T00:24:39;98747.56;;;10.88;82.77
70488;BME280;57976;48.174;16.370;2023-11-21T00:26:43;98745.73;;;10.84;83.02
70488;BME280;57976;48.174;16.370;2023-11-21T00:28:49;98754.26;;;10.81;83.08
70488;BME280;57976;48.174;16.370;2023-11-21T00:30:53;98753.96;;;10.75;83.33
70488;BME280;57976;48.174;16.370;2023-11-21T00:32:58;98752.84;;;10.72;83.89
70488;BME280;57976;48.174;16.370;2023-11-21T00:35:03;98755.20;;;10.68;83.88
70488;BME280;57976;48.174;16.370;2023-11-21T00:37:08;98756.02;;;10.62;84.01
70488;BME280;57976;48.174;16.370;2023-11-21T00:39:13;98756.83;;;10.58;84.54
70488;BME280;57976;48.174;16.370;2023-11-21T00:41:17;98757.91;;;10.54;84.54
70488;BME280;57976;48.174;16.370;2023-11-21T00:43:22;98760.63;;;10.51;84.96
70488;BME280;57976;48.174;16.370;2023-11-21T00:45:27;98757.58;;;10.49;85.19
70488;BME280;57976;48.174;16.370;2023-11-21T00:47:31;98754.55;;;10.48;84.65
70488;BME280;57976;48.174;16.370;2023-11-21T00:49:36;98755.39;;;10.44;85.11
70488;BME280;57976;48.174;16.370;2023-11-21T00:51:41;98756.38;;;10.43;85.24
70488;BME280;57976;48.174;16.370;2023-11-21T00:53:46;98759.59;;;10.39;85.10
70488;BME280;57976;48.174;16.370;2023-11-21T00:55:51;98754.17;;;10.36;85.25
70488;BME280;57976;48.174;16.370;2023-11-21T00:57:56;98756.55;;;10.34;85.99
70488;BME280;57976;48.174;16.370;2023-11-21T01:00:01;98753.25;;;10.33;85.96
70488;BME280;57976;48.174;16.370;2023-11-21T01:02:06;98756.87;;;10.31;86.01
70488;BME280;57976;48.174;16.370;2023-11-21T01:04:11;98756.83;;;10.30;86.19
70488;BME280;57976;48.174;16.370;2023-11-21T01:06:15;98753.64;;;10.30;86.40
70488;BME280;57976;48.174;16.370;2023-11-21T01:08:20;98750.73;;;10.31;86.63
70488;BME280;57976;48.174;16.370;2023-11-21T01:10:25;98748.39;;;10.28;86.69
70488;BME280;57976;48.174;16.370;2023-11-21T01:12:31;98745.79;;;10.25;86.74
70488;BME280;57976;48.174;16.370;2023-11-21T01:14:35;98748.09;;;10.24;86.95
70488;BME280;57976;48.174;16.370;2023-11-21T01:16:40;98746.14;;;10.22;87.14
70488;BME280;57976;48.174;16.370;2023-11-21T01:18:45;98747.21;;;10.21;86.89
70488;BME280;57976;48.174;16.370;2023-11-21T01:20:50;98743.93;;;10.20;86.91
70488;BME280;57976;48.174;16.370;2023-11-21T01:22:54;98745.58;;;10.19;86.79
70488;BME280;57976;48.174;16.370;2023-11-21T01:24:59;98742.05;;;10.18;87.39
70488;BME280;57976;48.174;16.370;2023-11-21T01:27:04;98741.56;;;10.18;86.94
70488;BME280;57976;48.174;16.370;2023-11-21T01:29:09;98735.69;;;10.15;86.79
70488;BME280;57976;48.174;16.370;2023-11-21T01:31:13;98733.94;;;10.14;87.21
70488;BME280;57976;48.174;16.370;2023-11-21T01:33:18;98731.52;;;10.13;87.39
70488;BME280;57976;48.174;16.370;2023-11-21T01:35:23;98728.98;;;10.10;87.35
70488;BME280;57976;48.174;16.370;2023-11-21T01:37:30;98726.30;;;10.09;87.78
70488;BME280;57976;48.174;16.370;2023-11-21T01:39:34;98719.90;;;10.05;87.67
70488;BME280;57976;48.174;16.370;2023-11-21T01:41:39;98721.55;;;10.04;87.98
70488;BME280;57976;48.174;16.370;2023-11-21T01:43:44;98719.66;;;10.02;88.04
70488;BME280;57976;48.174;16.370;2023-11-21T01:45:48;98719.84;;;10.02;88.42
70488;BME280;57976;48.174;16.370;2023-11-21T01:47:53;98719.66;;;10.04;88.49
70488;BME280;57976;48.174;16.370;2023-11-21T01:50:01;98718.63;;;10.05;88.43
70488;BME280;57976;48.174;16.370;2023-11-21T01:52:06;98718.05;;;10.08;88.41
70488;BME280;57976;48.174;16.370;2023-11-21T01:54:11;98721.00;;;10.07;88.39
70488;BME280;57976;48.174;16.370;2023-11-21T01:56:21;98725.43;;;10.05;88.68
70488;BME280;57976;48.174;16.370;2023-11-21T01:58:26;98724.80;;;9.99;88.83
70488;BME280;57976;48.174;16.370;2023-11-21T02:00:31;98730.59;;;9.96;89.51
70488;BME280;57976;48.174;16.370;2023-11-21T02:02:36;98728.85;;;9.91;89.45
70488;BME280;57976;48.174;16.370;2023-11-21T02:04:41;98722.41;;;9.87;89.70
70488;BME280;57976;48.174;16.370;2023-11-21T02:06:46;98719.10;;;9.83;90.11
70488;BME280;57976;48.174;16.370;2023-11-21T02:08:50;98720.99;;;9.81;90.68
70488;BME280;57976;48.174;16.370;2023-11-21T02:10:55;98716.45;;;9.78;90.63
70488;BME280;57976;48.174;16.370;2023-11-21T02:13:00;98714.80;;;9.74;91.00
70488;BME280;57976;48.174;16.370;2023-11-21T02:15:06;98719.42;;;9.72;90.42
70488;BME280;57976;48.174;16.370;2023-11-21T02:17:10;98717.48;;;9.66;90.63
70488;BME280;57976;48.174;16.370;2023-11-21T02:19:19;98708.12;;;9.63;90.19
70488;BME280;57976;48.174;16.370;2023-11-21T02:21:24;98707.60;;;9.62;90.56
70488;BME280;57976;48.174;16.370;2023-11-21T02:23:29;98707.27;;;9.59;90.53
70488;BME280;57976;48.174;16.370;2023-11-21T02:25:34;98697.95;;;9.57;90.69
70488;BME280;57976;48.174;16.370;2023-11-21T02:27:39;98694.89;;;9.55;91.01
70488;BME280;57976;48.174;16.370;2023-11-21T02:29:44;98698.41;;;9.55;90.96
70488;BME280;57976;48.174;16.370;2023-11-21T02:31:50;98705.66;;;9.55;91.43
70488;BME280;57976;48.174;16.370;2023-11-21T02:33:58;98699.48;;;9.55;91.58
70488;BME280;57976;48.174;16.370;2023-11-21T02:36:04;98704.73;;;9.53;91.61
70488;BME280;57976;48.174;16.370;2023-11-21T02:38:09;98705.75;;;9.50;92.02
70488;BME280;57976;48.174;16.370;2023-11-21T02:40:14;98705.56;;;9.45;92.14
70488;BME280;57976;48.174;16.370;2023-11-21T02:42:18;98704.27;;;9.41;92.61
70488;BME280;57976;48.174;16.370;2023-11-21T02:44:24;98707.05;;;9.38;93.05
70488;BME280;57976;48.174;16.370;2023-11-21T02:46:29;98707.18;;;9.33;92.94
70488;BME280;57976;48.174;16.370;2023-11-21T02:48:33;98711.41;;;9.31;93.39
70488;BME280;57976;48.174;16.370;2023-11-21T02:50:38;98710.47;;;9.27;93.26
70488;BME280;57976;48.174;16.370;2023-11-21T02:52:43;98713.50;;;9.21;93.42
70488;BME280;57976;48.174;16.370;2023-11-21T02:54:48;98711.11;;;9.17;93.75
70488;BME280;57976;48.174;16.370;2023-11-21T02:56:52;98708.29;;;9.14;93.95
70488;BME280;57976;48.174;16.370;2023-11-21T02:58:58;98703.39;;;9.12;93.99
70488;BME280;57976;48.174;16.370;2023-11-21T03:01:04;98707.92;;;9.11;94.35
70488;BME280;57976;48.174;16.370;2023-11-21T03:03:08;98704.69;;;9.10;93.99
70488;BME280;57976;48.174;16.370;2023-11-21T03:05:13;98703.89;;;9.08;94.49
70488;BME280;57976;48.174;16.370;2023-11-21T03:07:18;98695.16;;;9.09;94.27
70488;BME280;57976;48.174;16.370;2023-11-21T03:09:23;98696.02;;;9.07;94.50
70488;BME280;57976;48.174;16.370;2023-11-21T03:11:27;98694.56;;;9.07;94.62
70488;BME280;57976;48.174;16.370;2023-11-21T03:13:32;98690.11;;;9.04;94.86
70488;BME280;57976;48.174;16.370;2023-11-21T03:15:37;98692.73;;;9.02;95.16
70488;BME280;57976;48.174;16.370;2023-11-21T03:17:41;98689.59;;;8.98;95.29
70488;BME280;57976;48.174;16.370;2023-11-21T03:19:46;98689.14;;;8.96;95.29
70488;BME280;57976;48.174;16.370;2023-11-21T03:21:52;98689.99;;;8.93;95.31
70488;BME280;57976;48.174;16.370;2023-11-21T03:23:56;98688.95;;;8.92;95.35
70488;BME280;57976;48.174;16.370;2023-11-21T03:26:01;98688.44;;;8.92;95.47
70488;BME280;57976;48.174;16.370;2023-11-21T03:28:07;98691.64;;;8.90;95.61
70488;BME280;57976;48.174;16.370;2023-11-21T03:30:13;98691.77;;;8.91;95.54
70488;BME280;57976;48.174;16.370;2023-11-21T03:32:19;98694.50;;;8.90;95.49
70488;BME280;57976;48.174;16.370;2023-11-21T03:34:27;98695.14;;;8.90;95.43
70488;BME280;57976;48.174;16.370;2023-11-21T03:36:32;98697.52;;;8.91;95.34
70488;BME280;57976;48.174;16.370;2023-11-21T03:38:38;98697.23;;;8.92;95.52
70488;BME280;57976;48.174;16.370;2023-11-21T03:40:43;98693.27;;;8.93;95.52
70488;BME280;57976;48.174;16.370;2023-11-21T03:42:47;98695.80;;;8.92;95.49
70488;BME280;57976;48.174;16.370;2023-11-21T03:44:52;98692.66;;;8.91;95.59
70488;BME280;57976;48.174;16.370;2023-11-21T03:46:57;98691.31;;;8.90;95.50
70488;BME280;57976;48.174;16.370;2023-11-21T03:49:02;98689.27;;;8.89;95.48
70488;BME280;57976;48.174;16.370;2023-11-21T03:51:07;98688.94;;;8.89;95.63
70488;BME280;57976;48.174;16.370;2023-11-21T03:53:12;98689.79;;;8.88;95.65
70488;BME280;57976;48.174;16.370;2023-11-21T03:55:16;98686.75;;;8.87;95.73
70488;BME280;57976;48.174;16.370;2023-11-21T03:57:21;98684.27;;;8.85;95.85
70488;BME280;57976;48.174;16.370;2023-11-21T03:59:26;98689.92;;;8.84;95.73
70488;BME280;57976;48.174;16.370;2023-11-21T04:01:31;98693.80;;;8.83;95.87
70488;BME280;57976;48.174;16.370;2023-11-21T04:03:35;98688.98;;;8.82;95.95
70488;BME280;57976;48.174;16.370;2023-11-21T04:05:40;98692.86;;;8.81;95.92
70488;BME280;57976;48.174;16.370;2023-11-21T04:07:45;98690.38;;;8.80;96.19
70488;BME280;57976;48.174;16.370;2023-11-21T04:09:50;98690.83;;;8.78;96.08
70488;BME280;57976;48.174;16.370;2023-11-21T04:11:54;98691.80;;;8.75;96.24
70488;BME280;57976;48.174;16.370;2023-11-21T04:13:59;98691.30;;;8.70;96.66
70488;BME280;57976;48.174;16.370;2023-11-21T04:16:04;98695.65;;;8.67;96.82
70488;BME280;57976;48.174;16.370;2023-11-21T04:18:09;98696.17;;;8.63;97.11
70488;BME280;57976;48.174;16.370;2023-11-21T04:20:14;98695.51;;;8.60;97.04
70488;BME280;57976;48.174;16.370;2023-11-21T04:22:19;98692.63;;;8.58;97.39
70488;BME280;57976;48.174;16.370;2023-11-21T04:24:24;98688.08;;;8.56;97.47
70488;BME280;57976;48.174;16.370;2023-11-21T04:26:28;98685.06;;;8.54;97.60
70488;BME280;57976;48.174;16.370;2023-11-21T04:28:33;98683.03;;;8.52;97.74
70488;BME280;57976;48.174;16.370;2023-11-21T04:30:37;98680.16;;;8.48;97.87
70488;BME280;57976;48.174;16.370;2023-11-21T04:32:42;98682.84;;;8.45;98.08
70488;BME280;57976;48.174;16.370;2023-11-21T04:34:47;98685.46;;;8.43;98.11
70488;BME280;57976;48.174;16.370;2023-11-21T04:36:52;98683.17;;;8.40;98.63
70488;BME280;57976;48.174;16.370;2023-11-21T04:38:57;98682.11;;;8.39;98.44
70488;BME280;57976;48.174;16.370;2023-11-21T04:41:01;98682.30;;;8.36;99.07
70488;BME280;57976;48.174;16.370;2023-11-21T04:43:07;98687.33;;;8.32;99.09
70488;BME280;57976;48.174;16.370;2023-11-21T04:45:12;98687.80;;;8.27;98.76
70488;BME280;57976;48.174;16.370;2023-11-21T04:47:17;98688.58;;;8.22;99.26
70488;BME280;57976;48.174;16.370;2023-11-21T04:49:22;98684.26;;;8.18;99.47
70488;BME280;57976;48.174;16.370;2023-11-21T04:51:26;98684.04;;;8.15;99.74
70488;BME280;57976;48.174;16.370;2023-11-21T04:53:31;98687.81;;;8.11;99.94
70488;BME280;57976;48.174;16.370;2023-11-21T04:55:36;98689.20;;;8.09;100.00
70488;BME280;57976;48.174;16.370;2023-11-21T04:57:41;98693.23;;;8.07;100.00
70488;BME280;57976;48.174;16.370;2023-11-21T04:59:46;98695.52;;;8.05;100.00
70488;BME280;57976;48.174;16.370;2023-11-21T05:01:50;98697.12;;;8.07;100.00
70488;BME280;57976;48.174;16.370;2023-11-21T05:03:55;98697.41;;;8.10;100.00
70488;BME280;57976;48.174;16.370;2023-11-21T05:06:00;98692.86;;;8.17;100.00
70488;BME280;57976;48.174;16.370;2023-11-21T05:08:05;98692.42;;;8.23;99.99
70488;BME280;57976;48.174;16.370;2023-11-21T05:10:10;98693.75;;;8.26;99.95
70488;BME280;57976;48.174;16.370;2023-11-21T05:12:15;98692.83;;;8.29;99.93
70488;BME280;57976;48.174;16.370;2023-11-21T05:14:20;98697.50;;;8.32;99.79
70488;BME280;57976;48.174;16.370;2023-11-21T05:16:26;98701.77;;;8.36;99.57
70488;BME280;57976;48.174;16.370;2023-11-21T05:18:31;98700.59;;;8.38;99.43
70488;BME280;57976;48.174;16.370;2023-11-21T05:20:36;98704.38;;;8.42;99.32
70488;BME280;57976;48.174;16.370;2023-11-21T05:22:41;98702.81;;;8.43;99.12
70488;BME280;57976;48.174;16.370;2023-11-21T05:24:46;98705.59;;;8.43;99.10
70488;BME280;57976;48.174;16.370;2023-11-21T05:26:50;98706.82;;;8.44;98.94
70488;BME280;57976;48.174;16.370;2023-11-21T05:28:55;98705.35;;;8.44;99.04
70488;BME280;57976;48.174;16.370;2023-11-21T05:31:00;98699.91;;;8.43;98.93
70488;BME280;57976;48.174;16.370;2023-11-21T05:33:19;98701.55;;;8.45;98.84
70488;BME280;57976;48.174;16.370;2023-11-21T05:35:24;98704.78;;;8.46;98.74
70488;BME280;57976;48.174;16.370;2023-11-21T05:37:29;98704.48;;;8.46;98.66
70488;BME280;57976;48.174;16.370;2023-11-21T05:39:34;98713.64;;;8.47;98.79
70488;BME280;57976;48.174;16.370;2023-11-21T05:41:38;98715.98;;;8.48;98.84
70488;BME280;57976;48.174;16.370;2023-11-21T05:43:43;98720.48;;;8.48;98.47
70488;BME280;57976;48.174;16.370;2023-11-21T05:45:48;98719.64;;;8.48;98.72
70488;BME280;57976;48.174;16.370;2023-11-21T05:47:53;98725.85;;;8.49;98.63
70488;BME280;57976;48.174;16.370;2023-11-21T05:49:57;98726.07;;;8.52;98.49
70488;BME280;57976;48.174;16.370;2023-11-21T05:52:02;98729.29;;;8.55;98.87
70488;BME280;57976;48.174;16.370;2023-11-21T05:54:07;98734.59;;;8.58;98.54
70488;BME280;57976;48.174;16.370;2023-11-21T05:56:12;98738.08;;;8.60;98.25
70488;BME280;57976;48.174;16.370;2023-11-21T05:58:16;98741.67;;;8.61;97.80
70488;BME280;57976;48.174;16.370;2023-11-21T06:00:21;98742.68;;;8.62;97.92
70488;BME280;57976;48.174;16.370;2023-11-21T06:02:26;98744.83;;;8.65;97.88
70488;BME280;57976;48.174;16.370;2023-11-21T06:04:31;98745.04;;;8.67;97.71
70488;BME280;57976;48.174;16.370;2023-11-21T06:06:37;98750.55;;;8.71;97.54
70488;BME280;57976;48.174;16.370;2023-11-21T06:08:42;98752.48;;;8.75;97.50
70488;BME280;57976;48.174;16.370;2023-11-21T06:10:47;98756.44;;;8.77;97.17
70488;BME280;57976;48.174;16.370;2023-11-21T06:12:51;98763.27;;;8.82;97.12
70488;BME280;57976;48.174;16.370;2023-11-21T06:14:56;98761.63;;;8.84;96.72
70488;BME280;57976;48.174;16.370;2023-11-21T06:17:04;98763.83;;;8.86;96.65
70488;BME280;57976;48.174;16.370;2023-11-21T06:19:09;98766.00;;;8.89;96.34
70488;BME280;57976;48.174;16.370;2023-11-21T06:21:13;98769.35;;;8.92;96.08
70488;BME280;57976;48.174;16.370;2023-11-21T06:23:18;98769.22;;;8.95;96.12
70488;BME280;57976;48.174;16.370;2023-11-21T06:25:23;98772.67;;;9.00;95.94
70488;BME280;57976;48.174;16.370;2023-11-21T06:27:28;98774.42;;;9.08;96.27
70488;BME280;57976;48.174;16.370;2023-11-21T06:29:32;98773.60;;;9.18;96.01
70488;BME280;57976;48.174;16.370;2023-11-21T06:31:37;98768.13;;;9.28;95.75
70488;BME280;57976;48.174;16.370;2023-11-21T06:33:42;98773.15;;;9.34;95.06
70488;BME280;57976;48.174;16.370;2023-11-21T06:35:46;98775.35;;;9.40;94.69
70488;BME280;57976;48.174;16.370;2023-11-21T06:37:51;98776.93;;;9.47;94.58
70488;BME280;57976;48.174;16.370;2023-11-21T06:39:57;98782.29;;;9.51;93.81
70488;BME280;57976;48.174;16.370;2023-11-21T06:42:02;98787.02;;;9.56;93.82
70488;BME280;57976;48.174;16.370;2023-11-21T06:44:07;98785.98;;;9.58;93.33
70488;BME280;57976;48.174;16.370;2023-11-21T06:46:11;98786.15;;;9.62;93.23
70488;BME280;57976;48.174;16.370;2023-11-21T06:48:16;98786.88;;;9.67;92.55
70488;BME280;57976;48.174;16.370;2023-11-21T06:50:21;98789.64;;;9.72;92.35
70488;BME280;57976;48.174;16.370;2023-11-21T06:52:26;98788.85;;;9.74;91.97
70488;BME280;57976;48.174;16.370;2023-11-21T06:54:32;98788.65;;;9.76;91.93
70488;BME280;57976;48.174;16.370;2023-11-21T06:56:37;98787.39;;;9.77;91.45
70488;BME280;57976;48.174;16.370;2023-11-21T06:58:41;98788.94;;;9.81;91.45
70488;BME280;57976;48.174;16.370;2023-11-21T07:00:46;98792.92;;;9.87;91.37
70488;BME280;57976;48.174;16.370;2023-11-21T07:02:51;98794.74;;;9.94;90.84
70488;BME280;57976;48.174;16.370;2023-11-21T07:04:56;98794.89;;;9.99;90.87
70488;BME280;57976;48.174;16.370;2023-11-21T07:07:01;98795.96;;;10.04;90.40
70488;BME280;57976;48.174;16.370;2023-11-21T07:09:06;98797.36;;;10.11;90.45
70488;BME280;57976;48.174;16.370;2023-11-21T07:11:11;98791.79;;;10.12;89.78
70488;BME280;57976;48.174;16.370;2023-11-21T07:13:15;98787.95;;;10.15;89.49
70488;BME280;57976;48.174;16.370;2023-11-21T07:15:20;98789.81;;;10.18;89.61
70488;BME280;57976;48.174;16.370;2023-11-21T07:17:25;98799.17;;;10.22;89.03
70488;BME280;57976;48.174;16.370;2023-11-21T07:19:29;98801.00;;;10.24;88.92
70488;BME280;57976;48.174;16.370;2023-11-21T07:21:34;98800.91;;;10.26;88.77
70488;BME280;57976;48.174;16.370;2023-11-21T07:23:39;98799.75;;;10.31;88.94
70488;BME280;57976;48.174;16.370;2023-11-21T07:25:44;98803.94;;;10.36;88.94
70488;BME280;57976;48.174;16.370;2023-11-21T07:27:49;98801.63;;;10.40;88.62
70488;BME280;57976;48.174;16.370;2023-11-21T07:29:53;98802.09;;;10.47;88.48
70488;BME280;57976;48.174;16.370;2023-11-21T07:31:58;98803.41;;;10.51;87.91
70488;BME280;57976;48.174;16.370;2023-11-21T07:34:03;98804.28;;;10.56;87.46
70488;BME280;57976;48.174;16.370;2023-11-21T07:36:10;98809.45;;;10.61;87.11
70488;BME280;57976;48.174;16.370;2023-11-21T07:38:14;98811.34;;;10.62;86.75
70488;BME280;57976;48.174;16.370;2023-11-21T07:40:19;98813.19;;;10.61;85.92
70488;BME280;57976;48.174;16.370;2023-11-21T07:42:24;98818.41;;;10.59;85.61
70488;BME280;57976;48.174;16.370;2023-11-21T07:44:29;98816.98;;;10.57;85.71
70488;BME280;57976;48.174;16.370;2023-11-21T07:46:34;98812.77;;;10.55;85.65
70488;BME280;57976;48.174;16.370;2023-11-21T07:48:38;98813.48;;;10.54;85.85
70488;BME280;57976;48.174;16.370;2023-11-21T07:50:44;98807.97;;;10.57;86.34
70488;BME280;57976;48.174;16.370;2023-11-21T07:52:48;98811.27;;;10.58;85.99
70488;BME280;57976;48.174;16.370;2023-11-21T07:54:53;98813.64;;;10.60;85.82
70488;BME280;57976;48.174;16.370;2023-11-21T07:56:58;98814.85;;;10.66;86.49
70488;BME280;57976;48.174;16.370;2023-11-21T07:59:03;98817.44;;;10.71;86.02
70488;BME280;57976;48.174;16.370;2023-11-21T08:01:07;98819.70;;;10.75;85.79
70488;BME280;57976;48.174;16.370;2023-11-21T08:03:13;98817.64;;;10.79;85.59
70488;BME280;57976;48.174;16.370;2023-11-21T08:05:18;98819.27;;;10.84;85.50
70488;BME280;57976;48.174;16.370;2023-11-21T08:07:35;98818.82;;;10.85;85.14
70488;BME280;57976;48.174;16.370;2023-11-21T08:09:40;98824.39;;;10.86;84.44
70488;BME280;57976;48.174;16.370;2023-11-21T08:11:45;98822.52;;;10.84;84.31
70488;BME280;57976;48.174;16.370;2023-11-21T08:13:49;98816.67;;;10.82;84.12
70488;BME280;57976;48.174;16.370;2023-11-21T08:15:56;98819.44;;;10.80;84.31
70488;BME280;57976;48.174;16.370;2023-11-21T08:18:01;98821.33;;;10.78;84.43
70488;BME280;57976;48.174;16.370;2023-11-21T08:20:07;98818.42;;;10.76;84.61
70488;BME280;57976;48.174;16.370;2023-11-21T08:22:12;98821.42;;;10.76;85.42
70488;BME280;57976;48.174;16.370;2023-11-21T08:24:17;98823.40;;;10.74;84.96
70488;BME280;57976;48.174;16.370;2023-11-21T08:26:21;98825.98;;;10.74;85.41
70488;BME280;57976;48.174;16.370;2023-11-21T08:28:26;98825.70;;;10.78;85.78
70488;BME280;57976;48.174;16.370;2023-11-21T08:30:31;98822.16;;;10.83;85.51
70488;BME280;57976;48.174;16.370;2023-11-21T08:32:36;98827.59;;;10.87;85.36
70488;BME280;57976;48.174;16.370;2023-11-21T08:34:40;98833.80;;;10.90;85.20
70488;BME280;57976;48.174;16.370;2023-11-21T08:36:45;98830.08;;;10.94;85.04
70488;BME280;57976;48.174;16.370;2023-11-21T08:38:50;98826.16;;;10.97;84.68
70488;BME280;57976;48.174;16.370;2023-11-21T08:40:55;98829.77;;;11.04;84.63
70488;BME280;57976;48.174;16.370;2023-11-21T08:42:59;98828.78;;;11.10;84.13
70488;BME280;57976;48.174;16.370;2023-11-21T08:45:05;98830.08;;;11.14;83.53
70488;BME280;57976;48.174;16.370;2023-11-21T08:47:10;98829.19;;;11.16;83.49
70488;BME280;57976;48.174;16.370;2023-11-21T08:49:15;98830.19;;;11.21;83.87
70488;BME280;57976;48.174;16.370;2023-11-21T08:51:20;98826.83;;;11.25;83.57
70488;BME280;57976;48.174;16.370;2023-11-21T08:53:24;98831.13;;;11.31;83.11
70488;BME280;57976;48.174;16.370;2023-11-21T08:55:29;98829.22;;;11.33;82.43
70488;BME280;57976;48.174;16.370;2023-11-21T08:57:34;98825.75;;;11.35;82.14
70488;BME280;57976;48.174;16.370;2023-11-21T08:59:38;98821.71;;;11.38;82.27
70488;BME280;57976;48.174;16.370;2023-11-21T09:01:43;98825.15;;;11.43;81.57
70488;BME280;57976;48.174;16.370;2023-11-21T09:03:51;98819.70;;;11.43;81.08
70488;BME280;57976;48.174;16.370;2023-11-21T09:05:55;98815.80;;;11.42;80.89
70488;BME280;57976;48.174;16.370;2023-11-21T09:08:00;98815.02;;;11.43;81.60
70488;BME280;57976;48.174;16.370;2023-11-21T09:10:10;98817.06;;;11.45;81.45
70488;BME280;57976;48.174;16.370;2023-11-21T09:12:14;98814.21;;;11.46;80.82
70488;BME280;57976;48.174;16.370;2023-11-21T09:14:19;98814.80;;;11.46;80.77
70488;BME280;57976;48.174;16.370;2023-11-21T09:16:24;98810.73;;;11.45;81.18
70488;BME280;57976;48.174;16.370;2023-11-21T09:18:28;98810.55;;;11.48;81.37
70488;BME280;57976;48.174;16.370;2023-11-21T09:20:33;98810.58;;;11.50;81.14
70488;BME280;57976;48.174;16.370;2023-11-21T09:22:38;98812.33;;;11.50;80.62
70488;BME280;57976;48.174;16.370;2023-11-21T09:24:43;98816.48;;;11.52;80.98
70488;BME280;57976;48.174;16.370;2023-11-21T09:26:47;98815.06;;;11.56;80.97
70488;BME280;57976;48.174;16.370;2023-11-21T09:28:52;98809.52;;;11.60;81.20
70488;BME280;57976;48.174;16.370;2023-11-21T09:30:57;98809.64;;;11.68;80.73
70488;BME280;57976;48.174;16.370;2023-11-21T09:33:02;98806.10;;;11.70;79.69
70488;BME280;57976;48.174;16.370;2023-11-21T09:35:08;98802.88;;;11.71;80.08
70488;BME280;57976;48.174;16.370;2023-11-21T09:37:13;98802.90;;;11.74;79.82
70488;BME280;57976;48.174;16.370;2023-11-21T09:39:18;98797.30;;;11.76;79.99
70488;BME280;57976;48.174;16.370;2023-11-21T09:41:37;98800.57;;;11.76;79.62
70488;BME280;57976;48.174;16.370;2023-11-21T09:43:46;98798.41;;;11.75;79.61
70488;BME280;57976;48.174;16.370;2023-11-21T09:45:56;98807.36;;;11.80;79.17
70488;BME280;57976;48.174;16.370;2023-11-21T09:48:04;98803.61;;;11.80;77.94
70488;BME280;57976;48.174;16.370;2023-11-21T09:50:10;98801.88;;;11.81;78.74
70488;BME280;57976;48.174;16.370;2023-11-21T09:52:21;98796.36;;;11.86;78.75
70488;BME280;57976;48.174;16.370;2023-11-21T09:54:27;98799.27;;;11.90;78.36
70488;BME280;57976;48.174;16.370;2023-11-21T09:56:33;98800.61;;;11.95;78.81
70488;BME280;57976;48.174;16.370;2023-11-21T09:58:38;98799.84;;;12.02;78.78
70488;BME280;57976;48.174;16.370;2023-11-21T10:00:44;98803.48;;;12.10;77.91
70488;BME280;57976;48.174;16.370;2023-11-21T10:02:49;98799.38;;;12.13;77.14
70488;BME280;57976;48.174;16.370;2023-11-21T10:04:53;98794.08;;;12.17;78.04
70488;BME280;57976;48.174;16.370;2023-11-21T10:06:59;98791.36;;;12.23;77.50
70488;BME280;57976;48.174;16.370;2023-11-21T10:09:04;98792.61;;;12.25;77.49
70488;BME280;57976;48.174;16.370;2023-11-21T10:11:09;98784.21;;;12.24;77.76
70488;BME280;57976;48.174;16.370;2023-11-21T10:13:15;98783.55;;;12.28;78.18
70488;BME280;57976;48.174;16.370;2023-11-21T10:15:24;98784.79;;;12.30;77.79
70488;BME280;57976;48.174;16.370;2023-11-21T10:17:29;98780.52;;;12.26;77.56
70488;BME280;57976;48.174;16.370;2023-11-21T10:19:36;98781.30;;;12.24;77.87
70488;BME280;57976;48.174;16.370;2023-11-21T10:21:41;98776.39;;;12.22;77.91
70488;BME280;57976;48.174;16.370;2023-11-21T10:23:46;98778.91;;;12.21;77.98
70488;BME280;57976;48.174;16.370;2023-11-21T10:25:51;98781.64;;;12.23;78.01
70488;BME280;57976;48.174;16.370;2023-11-21T10:27:59;98782.27;;;12.21;77.85
70488;BME280;57976;48.174;16.370;2023-11-21T10:30:07;98783.61;;;12.17;77.58
70488;BME280;57976;48.174;16.370;2023-11-21T10:32:13;98776.65;;;12.14;78.36
70488;BME280;57976;48.174;16.370;2023-11-21T10:34:19;98774.10;;;12.15;78.10
70488;BME280;57976;48.174;16.370;2023-11-21T10:36:29;98773.55;;;12.16;78.40
70488;BME280;57976;48.174;16.370;2023-11-21T10:38:43;98778.55;;;12.21;77.95
70488;BME280;57976;48.174;16.370;2023-11-21T10:40:48;98778.80;;;12.23;77.09
70488;BME280;57976;48.174;16.370;2023-11-21T10:42:53;98779.58;;;12.20;77.83
70488;BME280;57976;48.174;16.370;2023-11-21T10:44:58;98782.93;;;12.20;78.33
70488;BME280;57976;48.174;16.370;2023-11-21T10:47:03;98784.55;;;12.23;77.87
70488;BME280;57976;48.174;16.370;2023-11-21T10:49:08;98787.27;;;12.25;78.19
70488;BME280;57976;48.174;16.370;2023-11-21T10:51:12;98779.56;;;12.27;78.07
70488;BME280;57976;48.174;16.370;2023-11-21T10:53:17;98776.50;;;12.30;78.40
70488;BME280;57976;48.174;16.370;2023-11-21T10:55:22;98780.75;;;12.33;78.00
70488;BME280;57976;48.174;16.370;2023-11-21T10:57:27;98780.58;;;12.36;77.73
70488;BME280;57976;48.174;16.370;2023-11-21T10:59:32;98778.05;;;12.42;77.84